Strona główna
METAR-TAF:

METAR-TAF

Lotnisko :

Port lotniczy Kefalonia

Kefalinia, Grecja

Szerokość geograficzna: 38-07N, Długość geograficzna: 020-30E, wysokość: 19 m

Aktualna obserwacja pogody

Raport powstał 40 minut temu, godzina 13:50 UTC
Wiatr 5 kt od południowo-południowy zachód
Temperatura 22°C
Wilgotność 69%
Ciśnienie 1014 hPa
Widzialność 10 km lub więcej
Mało chmury na wysokości 1500 ft

METAR: LGKF 041350Z 20005KT 9999 FEW015 22/16 Q1014

czas: 17:30 (14:30 UTC)

Prognoza

Raport powstał 3 godziny i 30 minut temu, godzina 11:00 UTC
Prognoza ważna od 04 godzina 12 UTC do 04 godzina 21 UTC
Wiatr 10 kt od południowo-południowy zachód
Widzialność 10 km lub więcej
Mało chmury na wysokości 1500 ft

TAF: LGKF 041100Z 0412/0421 20010KT 9999 FEW015

Obserwacja i prognoza pogody dla ponad 4000 lotnisk (raport METAR i TAF).

Dostępne stacje oznaczono żółtymi i czerwonymi punktami na mapie.

Najedź kursorem aby zobaczyć nazwę stacji.

Kliknij aby zobaczyć obserwacje i prognozy pogody.

Aby zmienić mapę: kliknij na zielony przycisk z czarnym krzyżykiem, aby powiększyć; na zielony przycisk z myślnikiem, aby pomniejszyć; na zielone strzałki, aby przejść do map sąsiednich.


METAR-TAF: